Time;durP1;ratioP1;P1;durP2;ratioP2;P2;SDS_P1;SDS_P2;PMS_P1;PMS_P2;Temp;Humidity;BMP_temperature;BMP_pressure;BME280_temperature;BME280_humidity;BME280_pressure;Samples;Min_cycle;Max_cycle;Signal;HPM_P1;HPM_P2
2022/06/14 00:00:56;;;;;;;11.27;3.88;;;10.40;99.90;;;;;;4986890;28;20497;-86
2022/06/14 00:03:36;;;;;;;14.00;3.85;;;10.30;99.90;;;;;;4969610;28;20068;-87
2022/06/14 00:06:04;;;;;;;12.23;3.75;;;10.30;99.90;;;;;;4986393;28;20046;-87
2022/06/14 00:08:30;;;;;;;12.40;3.90;;;10.30;99.90;;;;;;4955559;28;20517;-87
2022/06/14 00:10:57;;;;;;;13.27;4.70;;;10.90;99.90;;;;;;4962390;28;20054;-87
2022/06/14 00:13:23;;;;;;;14.50;3.80;;;10.20;99.90;;;;;;4984779;28;20068;-88
2022/06/14 00:15:48;;;;;;;9.80;3.65;;;10.40;99.90;;;;;;4984361;28;20069;-87
2022/06/14 00:18:14;;;;;;;11.73;3.72;;;10.20;99.90;;;;;;4983534;28;20045;-87
2022/06/14 00:20:40;;;;;;;11.35;3.72;;;10.10;99.90;;;;;;4963433;28;20058;-86
2022/06/14 00:23:06;;;;;;;12.63;4.00;;;10.20;99.90;;;;;;4979206;28;20038;-88
2022/06/14 00:25:36;;;;;;;13.77;4.10;;;10.20;99.90;;;;;;4965975;28;20182;-87
2022/06/14 00:28:02;;;;;;;11.57;3.80;;;10.10;99.90;;;;;;4979108;28;20042;-87
2022/06/14 00:30:28;;;;;;;10.82;3.63;;;10.40;99.90;;;;;;4989893;28;20042;-89
2022/06/14 00:32:54;;;;;;;14.88;4.30;;;10.10;99.90;;;;;;4970362;28;20100;-87
2022/06/14 00:35:19;;;;;;;11.80;3.70;;;10.00;99.90;;;;;;4960059;28;20153;-87
2022/06/14 00:37:45;;;;;;;12.43;3.90;;;10.00;99.90;;;;;;4978810;28;20101;-88
2022/06/14 00:40:12;;;;;;;16.10;4.00;;;10.00;99.90;;;;;;4991821;28;20049;-87
2022/06/14 00:42:38;;;;;;;8.57;3.78;;;10.00;99.90;;;;;;4972372;28;20057;-87
2022/06/14 00:45:13;;;;;;;8.50;3.42;;;10.00;99.90;;;;;;4960286;28;20047;-89
2022/06/14 00:47:42;;;;;;;13.20;3.88;;;10.00;99.90;;;;;;4984849;28;20058;-87
2022/06/14 00:50:23;;;;;;;17.30;4.28;;;10.70;99.90;;;;;;4995947;28;20058;-87
2022/06/14 00:52:51;;;;;;;14.90;4.30;;;9.90;99.90;;;;;;4963121;28;20601;-87
2022/06/14 00:55:23;;;;;;;15.65;4.40;;;9.80;99.90;;;;;;4959272;28;20047;-86
2022/06/14 00:57:53;;;;;;;11.88;4.00;;;9.80;99.90;;;;;;4962928;28;20053;-87
2022/06/14 01:00:20;;;;;;;14.80;4.05;;;9.80;99.90;;;;;;4979172;28;20050;-87
2022/06/14 01:02:55;;;;;;;8.82;3.60;;;9.80;99.90;;;;;;4993225;28;20038;-90
2022/06/14 01:06:05;;;;;;;15.15;4.18;;;9.80;99.90;;;;;;4986464;28;20059;-88
2022/06/14 01:08:23;;;;;;;13.25;3.80;;;9.70;99.90;;;;;;4968210;28;20065;-87
2022/06/14 01:10:49;;;;;;;14.77;4.22;;;9.70;99.90;;;;;;5009145;28;20368;-87
2022/06/14 01:13:20;;;;;;;12.10;4.00;;;9.70;99.90;;;;;;5013900;28;20045;-89
2022/06/14 01:15:48;;;;;;;11.57;4.15;;;9.60;99.90;;;;;;4995610;28;20039;-87
2022/06/14 01:18:14;;;;;;;16.70;4.80;;;9.60;99.90;;;;;;5009854;28;20058;-87
2022/06/14 01:20:40;;;;;;;12.50;4.40;;;9.60;99.90;;;;;;4973537;28;20058;-87
2022/06/14 01:23:07;;;;;;;10.02;4.40;;;9.50;99.90;;;;;;4989245;28;20048;-88
2022/06/14 01:25:35;;;;;;;9.40;4.65;;;9.50;99.90;;;;;;4994082;28;20159;-87
2022/06/14 01:28:01;;;;;;;12.40;4.45;;;9.60;99.90;;;;;;4981100;28;20055;-87
2022/06/14 01:30:39;;;;;;;14.60;4.70;;;9.50;99.90;;;;;;4959602;28;20049;-87
2022/06/14 01:33:10;;;;;;;13.63;4.55;;;9.40;99.90;;;;;;4954638;28;20049;-88
2022/06/14 01:35:36;;;;;;;13.82;4.40;;;9.40;99.90;;;;;;4961596;28;20042;-87
2022/06/14 01:38:07;;;;;;;16.52;5.18;;;9.40;99.90;;;;;;4961998;28;20061;-86
2022/06/14 01:40:43;;;;;;;16.48;5.15;;;9.40;99.90;;;;;;4979145;28;20040;-87
2022/06/14 01:43:31;;;;;;;10.73;4.72;;;9.40;99.90;;;;;;4945804;28;20097;-89
2022/06/14 01:46:20;;;;;;;22.13;4.90;;;9.40;99.90;;;;;;4977800;28;20437;-88
2022/06/14 01:48:52;;;;;;;16.58;5.68;;;9.40;99.90;;;;;;4989033;28;20054;-87
2022/06/14 01:54:22;;;;;;;15.43;6.00;;;9.30;99.90;;;;;;4979396;28;20092;-86
2022/06/14 01:57:27;;;;;;;15.95;6.65;;;9.30;99.90;;;;;;4962519;28;20113;-87
2022/06/14 01:59:56;;;;;;;14.93;5.50;;;9.30;99.90;;;;;;4974124;28;20482;-86
2022/06/14 02:02:27;;;;;;;18.33;5.80;;;9.30;99.90;;;;;;4981162;28;20320;-87
2022/06/14 02:05:25;;;;;;;14.88;5.55;;;9.30;99.90;;;;;;4956837;28;20050;-87
2022/06/14 02:07:56;;;;;;;20.77;6.10;;;9.30;99.90;;;;;;4962075;28;20050;-88
2022/06/14 02:10:44;;;;;;;14.52;5.93;;;9.30;99.90;;;;;;4988404;28;20096;-87
2022/06/14 02:13:17;;;;;;;17.33;6.50;;;9.20;99.90;;;;;;4944962;28;20466;-86
2022/06/14 02:15:52;;;;;;;13.57;5.95;;;9.20;99.90;;;;;;4993427;28;20482;-86
2022/06/14 02:18:49;;;;;;;15.05;5.10;;;9.20;99.90;;;;;;5003311;28;20163;-87
2022/06/14 02:21:43;;;;;;;13.60;5.60;;;9.20;99.90;;;;;;4971587;28;20491;-86
2022/06/14 02:24:17;;;;;;;14.65;5.70;;;9.20;99.90;;;;;;4977233;28;20498;-86
2022/06/14 02:26:56;;;;;;;13.77;5.88;;;9.20;99.90;;;;;;4959033;28;20061;-86
2022/06/14 02:29:55;;;;;;;16.67;6.18;;;9.20;99.90;;;;;;4980620;28;20077;-88
2022/06/14 02:32:48;;;;;;;19.98;5.82;;;9.20;99.90;;;;;;4975540;28;20041;-88
2022/06/14 02:35:21;;;;;;;12.35;5.07;;;9.10;99.90;;;;;;4965267;28;20050;-86
2022/06/14 02:37:54;;;;;;;17.60;5.85;;;9.20;99.90;;;;;;4983178;28;20072;-87
2022/06/14 02:40:47;;;;;;;17.67;6.07;;;9.10;99.90;;;;;;4929301;28;20118;-87
2022/06/14 02:43:21;;;;;;;15.40;5.57;;;9.30;99.90;;;;;;4963279;28;20066;-87
2022/06/14 02:45:57;;;;;;;17.08;6.15;;;9.10;99.90;;;;;;4980060;28;20126;-87
2022/06/14 02:48:34;;;;;;;14.30;5.90;;;9.10;99.90;;;;;;4974256;28;20101;-86
2022/06/14 02:51:12;;;;;;;16.13;6.13;;;9.10;99.90;;;;;;4997944;28;20104;-86
2022/06/14 02:54:05;;;;;;;16.55;6.28;;;9.10;99.90;;;;;;4974684;28;20046;-86
2022/06/14 02:56:33;;;;;;;12.82;5.40;;;9.10;99.90;;;;;;4977745;28;20049;-88
2022/06/14 02:59:04;;;;;;;17.48;5.82;;;9.10;99.90;;;;;;4993316;28;20065;-87
2022/06/14 03:01:33;;;;;;;15.50;6.53;;;10.30;99.90;;;;;;5004365;28;20107;-87
2022/06/14 03:04:17;;;;;;;15.07;5.57;;;9.10;99.90;;;;;;4950297;28;20427;-87
2022/06/14 03:06:50;;;;;;;14.32;5.72;;;9.20;99.90;;;;;;4964692;28;20118;-86
2022/06/14 03:09:19;;;;;;;17.40;5.53;;;9.20;99.90;;;;;;4957576;28;20046;-87
2022/06/14 03:11:48;;;;;;;14.73;5.80;;;9.20;99.90;;;;;;4991525;28;20087;-86
2022/06/14 03:14:35;;;;;;;15.40;6.00;;;9.40;99.90;;;;;;4960740;28;20556;-88
2022/06/14 03:17:24;;;;;;;19.00;6.07;;;9.20;99.90;;;;;;4966052;28;20045;-88
2022/06/14 03:20:04;;;;;;;14.25;5.80;;;9.20;99.90;;;;;;4991728;28;20056;-87
2022/06/14 03:22:41;;;;;;;17.67;6.32;;;9.20;99.90;;;;;;4978701;28;20386;-86
2022/06/14 03:25:45;;;;;;;16.88;6.25;;;9.20;99.90;;;;;;4975638;28;20367;-86
2022/06/14 03:28:22;;;;;;;14.18;6.45;;;9.30;99.90;;;;;;4937120;28;20078;-87
2022/06/14 03:30:55;;;;;;;14.50;6.45;;;10.60;99.90;;;;;;4983265;28;20462;-86
2022/06/14 03:33:45;;;;;;;10.47;6.23;;;9.30;99.90;;;;;;4990922;28;20100;-88
2022/06/14 03:36:11;;;;;;;14.32;6.93;;;9.40;99.90;;;;;;4976256;28;20122;-86
2022/06/14 03:38:42;;;;;;;17.45;7.35;;;9.40;99.90;;;;;;4968380;28;20134;-88
2022/06/14 03:41:13;;;;;;;16.45;5.70;;;9.40;99.90;;;;;;4964025;28;20056;-87
2022/06/14 03:43:39;;;;;;;16.60;6.00;;;9.30;99.90;;;;;;4963763;28;20132;-87
2022/06/14 03:46:15;;;;;;;16.73;6.85;;;9.60;99.90;;;;;;4997737;28;20065;-86
2022/06/14 03:48:44;;;;;;;12.85;5.63;;;8.00;99.90;;;;;;5001334;28;20060;-90
2022/06/14 03:51:51;;;;;;;14.57;7.03;;;9.80;99.90;;;;;;4995925;28;20291;-88
2022/06/14 03:54:42;;;;;;;17.52;6.15;;;9.90;99.90;;;;;;4954502;28;20149;-87
2022/06/14 03:57:11;;;;;;;13.48;5.80;;;10.00;99.90;;;;;;4979641;28;20541;-86
2022/06/14 03:59:46;;;;;;;18.23;6.80;;;9.90;99.90;;;;;;5001821;28;20050;-89
2022/06/14 04:02:53;;;;;;;11.65;5.57;;;10.00;99.90;;;;;;4986059;28;20046;-86
2022/06/14 04:05:24;;;;;;;13.30;6.00;;;9.90;99.90;;;;;;4981724;28;20074;-86
2022/06/14 04:07:55;;;;;;;20.70;6.10;;;10.00;99.90;;;;;;4979468;28;20062;-87
2022/06/14 04:10:32;;;;;;;16.05;6.00;;;10.00;99.90;;;;;;4967659;28;20540;-86
2022/06/14 04:13:34;;;;;;;16.27;5.63;;;10.00;99.90;;;;;;4979697;28;20474;-87
2022/06/14 04:16:05;;;;;;;15.13;5.88;;;10.00;99.90;;;;;;4976707;28;20051;-87
2022/06/14 04:18:41;;;;;;;11.43;5.47;;;10.00;99.90;;;;;;4964092;28;20077;-86
2022/06/14 04:21:28;;;;;;;14.02;5.90;;;10.10;99.90;;;;;;4979766;28;20054;-87
2022/06/14 04:24:07;;;;;;;19.98;5.80;;;10.00;99.90;;;;;;5006353;28;20144;-86
2022/06/14 04:26:39;;;;;;;16.08;5.88;;;10.10;99.90;;;;;;4979944;28;20065;-86
2022/06/14 04:29:13;;;;;;;14.65;6.13;;;10.30;99.90;;;;;;4970337;28;20378;-86
2022/06/14 04:31:50;;;;;;;16.23;6.10;;;10.40;99.90;;;;;;4948525;28;20050;-87
2022/06/14 04:34:36;;;;;;;18.80;5.63;;;10.60;99.90;;;;;;4988317;28;20046;-87
2022/06/14 04:37:08;;;;;;;16.20;5.10;;;10.70;99.90;;;;;;4963109;28;20050;-87
2022/06/14 04:39:42;;;;;;;11.55;5.35;;;11.00;99.90;;;;;;4939686;28;20116;-86
2022/06/14 04:42:13;;;;;;;;;;;11.60;99.90;;;;;;4963690;28;20364;-86
2022/06/14 04:44:40;;;;;;;10.77;4.55;;;12.00;99.90;;;;;;4979627;28;19937;-86
2022/06/14 04:47:22;;;;;;;19.85;4.72;;;12.40;99.90;;;;;;4991826;28;20387;-87
2022/06/14 04:50:22;;;;;;;12.05;3.97;;;12.90;99.90;;;;;;4987854;28;20466;-88
2022/06/14 04:52:57;;;;;;;13.85;3.60;;;13.50;99.90;;;;;;4987293;28;20054;-87
2022/06/14 04:55:33;;;;;;;10.90;4.15;;;14.00;99.90;;;;;;4968800;28;20077;-87
2022/06/14 04:58:00;;;;;;;12.55;4.13;;;14.10;99.90;;;;;;4959054;28;20062;-87
2022/06/14 05:00:29;;;;;;;15.15;4.30;;;14.70;99.90;;;;;;4982476;28;20046;-95
2022/06/14 05:03:02;;;;;;;10.23;3.58;;;15.20;99.90;;;;;;4954844;28;20053;-87
2022/06/14 05:05:36;;;;;;;8.93;3.25;;;15.60;99.90;;;;;;4984779;28;20034;-93
2022/06/14 05:08:20;;;;;;;11.43;3.67;;;15.70;99.90;;;;;;4978713;28;20053;-87
2022/06/14 05:10:49;;;;;;;13.30;3.65;;;16.00;99.90;;;;;;4986613;28;20057;-94
2022/06/14 05:13:34;;;;;;;7.82;3.13;;;16.00;99.90;;;;;;4992436;28;20141;-84
2022/06/14 05:16:08;;;;;;;7.78;2.92;;;16.60;99.90;;;;;;4970194;28;20053;-88
2022/06/14 05:18:47;;;;;;;10.20;2.90;;;17.00;99.90;;;;;;4977909;28;20054;-88
2022/06/14 05:21:50;;;;;;;11.23;3.83;;;16.70;99.90;;;;;;4977842;28;20504;-86
2022/06/14 05:24:16;;;;;;;8.68;3.38;;;16.90;99.90;;;;;;4976883;28;20092;-88
2022/06/14 05:26:45;;;;;;;8.35;3.15;;;17.40;99.90;;;;;;4963392;28;20279;-86
2022/06/14 05:29:38;;;;;;;11.20;3.47;;;17.20;99.90;;;;;;4985779;28;20065;-88
2022/06/14 05:32:32;;;;;;;8.00;3.08;;;17.30;99.90;;;;;;4950386;28;20050;-88
2022/06/14 05:35:01;;;;;;;;;;;17.30;99.90;;;;;;4976112;28;20047;-87
2022/06/14 05:37:48;;;;;;;10.30;3.50;;;17.10;99.90;;;;;;4994068;28;20338;-88
2022/06/14 05:40:27;;;;;;;9.15;3.65;;;17.60;99.90;;;;;;4980828;28;20050;-87
2022/06/14 05:43:02;;;;;;;7.53;2.88;;;18.10;99.90;;;;;;5017443;28;20050;-89
2022/06/14 05:45:28;;;;;;;6.47;2.70;;;18.80;99.90;;;;;;4966050;28;20455;-87
2022/06/14 05:47:59;;;;;;;8.82;3.33;;;18.20;99.90;;;;;;4971552;28;20723;-87
2022/06/14 05:50:28;;;;;;;8.00;2.88;;;18.10;99.90;;;;;;4980451;28;20041;-87
2022/06/14 05:53:09;;;;;;;11.10;3.22;;;18.40;99.90;;;;;;4996145;28;20045;-87
2022/06/14 05:55:38;;;;;;;11.57;2.97;;;19.00;99.90;;;;;;4979162;28;20532;-87
2022/06/14 05:58:08;;;;;;;9.20;2.72;;;18.80;99.90;;;;;;4977151;28;20117;-87
2022/06/14 06:00:51;;;;;;;6.82;2.83;;;19.10;99.90;;;;;;4991220;28;20054;-88
2022/06/14 06:03:37;;;;;;;10.88;3.15;;;19.40;99.90;;;;;;4956783;28;20092;-89
2022/06/14 06:06:25;;;;;;;9.55;2.90;;;19.00;99.90;;;;;;4980282;28;20058;-89
2022/06/14 06:08:54;;;;;;;9.13;2.70;;;19.20;99.90;;;;;;4982349;28;20361;-89
2022/06/14 06:11:25;;;;;;;10.30;3.10;;;19.60;99.90;;;;;;4996285;28;20049;-88
2022/06/14 06:14:12;;;;;;;10.52;3.00;;;20.10;99.90;;;;;;4989993;28;20046;-90
2022/06/14 06:19:23;;;;;;;9.35;2.85;;;20.50;99.90;;;;;;4970556;28;20129;-88
2022/06/14 06:22:00;;;;;;;8.32;2.85;;;20.90;99.90;;;;;;4975644;28;20082;-90
2022/06/14 06:24:39;;;;;;;7.40;2.67;;;20.70;99.90;;;;;;5007637;28;20041;-88
2022/06/14 06:27:09;;;;;;;7.55;2.53;;;19.90;99.90;;;;;;5018355;28;20080;-88
2022/06/14 06:29:52;;;;;;;8.95;2.53;;;19.70;99.90;;;;;;4983663;28;20046;-88
2022/06/14 06:32:18;;;;;;;6.38;2.50;;;19.70;99.90;;;;;;4961171;28;20487;-88
2022/06/14 06:34:44;;;;;;;7.95;2.33;;;19.90;99.90;;;;;;4974399;28;20045;-88
2022/06/14 06:37:36;;;;;;;7.45;2.17;;;19.70;99.90;;;;;;4982847;28;20540;-89
2022/06/14 06:40:08;;;;;;;8.38;2.58;;;19.50;99.90;;;;;;4973492;28;20058;-89
2022/06/14 06:42:38;;;;;;;7.40;2.67;;;19.90;99.90;;;;;;4990410;28;20056;-87
2022/06/14 06:45:08;;;;;;;6.70;2.50;;;20.10;99.90;;;;;;4981723;28;20051;-89
2022/06/14 06:47:46;;;;;;;9.65;2.75;;;20.20;99.90;;;;;;5014067;28;20081;-87
2022/06/14 06:50:24;;;;;;;4.95;2.13;;;20.40;99.90;;;;;;4994534;28;20390;-89
2022/06/14 06:53:01;;;;;;;6.65;2.28;;;20.60;99.90;;;;;;4973202;28;20046;-88
2022/06/14 06:55:27;;;;;;;8.52;2.30;;;21.10;99.90;;;;;;4989635;28;20085;-89
2022/06/14 06:57:53;;;;;;;6.57;2.05;;;21.10;99.90;;;;;;4987354;28;20080;-89
2022/06/14 07:00:19;;;;;;;5.60;1.90;;;20.80;99.90;;;;;;4945072;28;20138;-90
2022/06/14 07:02:49;;;;;;;7.13;2.33;;;21.30;99.90;;;;;;4960957;28;20097;-86
2022/06/14 07:05:16;;;;;;;7.25;2.28;;;21.50;99.90;;;;;;4953724;28;20046;-90
2022/06/14 07:07:58;;;;;;;7.82;2.10;;;20.90;99.90;;;;;;4992313;28;20114;-88
2022/06/14 07:10:55;;;;;;;8.02;2.15;;;21.10;99.90;;;;;;4976189;28;20054;-89
2022/06/14 07:13:34;;;;;;;7.40;1.92;;;20.80;99.90;;;;;;4980071;28;20046;-86
2022/06/14 07:16:23;;;;;;;3.83;1.70;;;21.60;99.90;;;;;;4997835;28;20473;-87
2022/06/14 07:18:52;;;;;;;5.15;1.85;;;20.80;99.90;;;;;;4998955;28;20064;-89
2022/06/14 07:21:23;;;;;;;5.60;1.58;;;20.80;99.90;;;;;;4965872;28;20050;-86
2022/06/14 07:23:54;;;;;;;4.85;1.65;;;21.20;99.90;;;;;;4991406;28;20047;-87
2022/06/14 07:26:27;;;;;;;5.05;1.50;;;21.40;99.90;;;;;;5011956;28;20506;-87
2022/06/14 07:28:58;;;;;;;7.97;1.97;;;21.30;99.90;;;;;;4971337;28;20093;-86
2022/06/14 07:31:42;;;;;;;6.40;1.95;;;20.90;99.90;;;;;;4990912;28;20045;-89
2022/06/14 07:34:08;;;;;;;7.15;2.45;;;19.90;99.90;;;;;;4964750;28;20050;-87
2022/06/14 07:36:56;;;;;;;5.43;1.95;;;19.20;99.90;;;;;;5022862;28;20534;-87
2022/06/14 07:39:34;;;;;;;8.27;2.20;;;18.90;99.90;;;;;;5010287;28;20034;-87
2022/06/14 07:42:18;;;;;;;6.25;2.08;;;18.90;99.90;;;;;;5016210;28;20038;-92
2022/06/14 07:45:00;;;;;;;7.10;2.20;;;19.20;99.90;;;;;;4981929;28;20485;-86
2022/06/14 07:47:32;;;;;;;4.47;2.00;;;20.40;99.90;;;;;;4992920;28;20054;-87
2022/06/14 07:50:34;;;;;;;6.95;2.63;;;20.40;99.90;;;;;;4981834;28;20105;-87
2022/06/14 07:53:17;;;;;;;14.48;2.90;;;20.80;99.90;;;;;;4948549;28;20056;-88
2022/06/14 07:55:54;;;;;;;7.97;2.20;;;21.10;99.90;;;;;;4950332;28;20390;-87
2022/06/14 07:58:44;;;;;;;6.20;2.00;;;20.30;99.90;;;;;;4944492;28;20392;-88
2022/06/14 08:01:28;;;;;;;6.60;2.45;;;20.60;99.90;;;;;;4994764;28;20096;-88
2022/06/14 08:04:09;;;;;;;6.22;1.98;;;20.60;99.90;;;;;;4983787;28;20044;-86
2022/06/14 08:06:44;;;;;;;4.45;2.15;;;20.70;99.90;;;;;;4991777;28;20038;-90
2022/06/14 08:09:23;;;;;;;5.47;1.75;;;20.40;99.90;;;;;;4978679;28;20144;-92
2022/06/14 08:12:26;;;;;;;6.07;1.70;;;19.90;99.90;;;;;;4977772;28;20081;-93
2022/06/14 08:15:01;;;;;;;5.15;1.55;;;19.50;99.90;;;;;;4971919;28;20084;-91
2022/06/14 08:17:41;;;;;;;3.30;1.50;;;18.80;99.90;;;;;;4950971;28;20059;-90
2022/06/14 08:20:30;;;;;;;7.22;2.20;;;19.20;99.90;;;;;;4980313;28;20042;-87
2022/06/14 08:23:01;;;;;;;4.32;1.77;;;20.20;99.90;;;;;;4981596;28;20050;-87
2022/06/14 08:25:32;;;;;;;5.45;2.03;;;20.60;99.90;;;;;;5026338;28;20175;-85
2022/06/14 08:28:06;;;;;;;4.40;1.83;;;21.10;99.90;;;;;;4969619;28;20084;-89
2022/06/14 08:30:38;;;;;;;5.22;1.70;;;21.10;99.90;;;;;;5000883;28;20058;-91
2022/06/14 08:33:13;;;;;;;6.30;1.73;;;20.80;99.90;;;;;;4999606;28;20053;-92
2022/06/14 08:35:48;;;;;;;4.57;2.05;;;22.70;99.90;;;;;;4988865;28;20458;-89
2022/06/14 08:38:17;;;;;;;3.85;1.50;;;22.50;99.90;;;;;;4947104;28;20122;-91
2022/06/14 08:41:20;;;;;;;5.53;2.00;;;21.10;99.90;;;;;;4965848;28;20486;-91
2022/06/14 08:43:49;;;;;;;4.80;1.77;;;20.70;99.90;;;;;;4995404;28;20045;-88
2022/06/14 08:46:28;;;;;;;7.05;2.10;;;20.20;99.90;;;;;;5014421;28;20050;-90
2022/06/14 08:52:35;;;;;;;5.22;1.55;;;21.00;99.90;;;;;;4973082;28;20069;-89
2022/06/14 08:55:06;;;;;;;7.47;1.77;;;21.40;99.90;;;;;;5002436;28;20030;-92
2022/06/14 08:57:57;;;;;;;5.97;1.58;;;21.50;99.90;;;;;;4997620;28;20057;-90
2022/06/14 09:00:41;;;;;;;4.15;1.50;;;21.70;99.90;;;;;;5011386;28;20197;-90
2022/06/14 09:03:13;;;;;;;;;;;23.10;99.90;;;;;;4978952;28;20038;-90
2022/06/14 09:05:57;;;;;;;4.43;1.50;;;22.80;99.90;;;;;;4979669;28;19918;-91
2022/06/14 09:08:29;;;;;;;3.30;1.63;;;22.90;99.90;;;;;;4973998;28;20504;-89
2022/06/14 09:11:20;;;;;;;4.03;1.30;;;23.70;99.90;;;;;;4986765;28;20034;-90
2022/06/14 09:14:13;;;;;;;4.03;1.52;;;24.00;99.90;;;;;;4977326;28;20046;-89
2022/06/14 09:16:45;;;;;;;6.10;4.40;;;23.20;99.80;;;;;;4964621;28;20046;-89
2022/06/14 09:19:42;;;;;;;2.97;1.50;;;23.30;99.40;;;;;;4977064;28;20084;-89
2022/06/14 09:22:47;;;;;;;4.78;1.40;;;23.80;99.40;;;;;;5004945;28;20030;-90
2022/06/14 09:25:23;;;;;;;2.85;1.30;;;23.80;98.80;;;;;;5012248;28;20046;-89
2022/06/14 09:31:56;;;;;;;6.22;1.55;;;21.30;98.50;;;;;;4981194;28;20215;-92
2022/06/14 09:34:36;;;;;;;3.65;1.50;;;23.60;99.90;;;;;;4975263;28;20054;-94
2022/06/14 09:37:14;;;;;;;4.55;1.80;;;23.50;99.90;;;;;;4982583;28;20055;-90
2022/06/14 09:40:10;;;;;;;2.90;1.40;;;24.10;99.90;;;;;;4989840;28;20049;-91
2022/06/14 09:43:08;;;;;;;3.72;1.60;;;24.10;98.60;;;;;;5007148;28;20176;-91
2022/06/14 09:46:14;;;;;;;2.53;1.20;;;23.30;98.80;;;;;;4993797;28;20069;-92
2022/06/14 09:48:53;;;;;;;5.13;1.40;;;23.40;99.20;;;;;;4982845;28;20099;-93
2022/06/14 09:51:54;;;;;;;;;;;;;;;;;;;;;
2022/06/14 09:55:02;;;;;;;3.13;1.58;;;22.10;99.90;;;;;;4980536;28;20054;-91
2022/06/14 09:57:46;;;;;;;3.42;1.30;;;21.70;99.90;;;;;;4988368;28;20195;-91
2022/06/14 10:00:30;;;;;;;3.83;1.92;;;20.00;99.90;;;;;;4991897;28;20481;-92
2022/06/14 10:03:10;;;;;;;4.43;1.80;;;20.90;99.90;;;;;;4980606;28;20051;-90
2022/06/14 10:05:55;;;;;;;6.95;1.60;;;20.70;99.90;;;;;;5008680;28;20069;-93
2022/06/14 10:08:23;;;;;;;4.28;1.42;;;20.30;99.90;;;;;;4973450;28;20054;-92
2022/06/14 10:11:15;;;;;;;4.03;1.58;;;20.30;99.90;;;;;;4991763;28;20069;-94
2022/06/14 10:14:11;;;;;;;3.78;1.50;;;21.90;99.90;;;;;;5014999;28;20041;-94
2022/06/14 10:16:48;;;;;;;4.07;1.75;;;22.20;99.90;;;;;;4994202;28;20030;-94
2022/06/14 10:19:45;;;;;;;3.80;1.40;;;23.00;99.90;;;;;;4985792;28;20518;-93
2022/06/14 10:22:20;;;;;;;5.03;1.55;;;23.90;99.30;;;;;;4980574;28;20050;-95
2022/06/14 10:25:15;;;;;;;5.28;1.77;;;23.30;99.90;;;;;;4995381;28;20046;-95
2022/06/14 10:28:12;;;;;;;3.47;1.50;;;23.30;99.90;;;;;;4952598;28;20066;-93
2022/06/14 10:31:07;;;;;;;;;;;;;;;;;;;;;
2022/06/14 10:33:57;;;;;;;3.00;1.27;;;24.00;99.20;;;;;;4977913;28;20046;-94
2022/06/14 10:36:38;;;;;;;5.43;1.35;;;24.30;98.10;;;;;;5164945;22;20081;-94
2022/06/14 10:39:12;;;;;;;3.25;1.60;;;23.90;98.40;;;;;;4983135;28;20046;-92
2022/06/14 10:41:57;;;;;;;5.38;1.55;;;23.30;99.00;;;;;;5033845;28;20053;-93
2022/06/14 10:44:41;;;;;;;4.35;1.60;;;21.30;99.20;;;;;;5020435;28;20042;-94
2022/06/14 10:55:03;;;;;;;3.47;1.40;;;22.10;99.80;;;;;;5015127;28;20061;-87
2022/06/14 10:57:44;;;;;;;3.00;1.40;;;20.90;99.90;;;;;;4995437;28;20041;-93
2022/06/14 11:00:35;;;;;;;5.80;1.50;;;20.60;99.90;;;;;;4982370;28;20049;-92
2022/06/14 11:03:19;;;;;;;5.30;1.60;;;20.40;99.90;;;;;;4999689;28;20042;-93
2022/06/14 11:06:07;;;;;;;2.90;1.45;;;20.70;99.90;;;;;;5010637;28;20056;-91
2022/06/14 11:08:49;;;;;;;4.07;1.40;;;21.30;99.90;;;;;;4994973;28;20046;-89
2022/06/14 11:11:40;;;;;;;;;;;;;;;;;;;;;
2022/06/14 11:14:30;;;;;;;3.28;1.20;;;22.80;99.90;;;;;;5005884;28;20052;-87
2022/06/14 11:16:59;;;;;;;3.33;1.23;;;23.20;99.50;;;;;;4999072;28;20045;-89
2022/06/14 11:19:43;;;;;;;3.22;1.25;;;23.70;99.20;;;;;;4994858;28;20045;-85
2022/06/14 11:22:22;;;;;;;4.28;1.30;;;23.30;98.90;;;;;;5020834;28;20042;-85
2022/06/14 11:25:11;;;;;;;3.47;1.52;;;22.80;99.20;;;;;;5014663;28;20046;-85
2022/06/14 11:28:05;;;;;;;2.40;1.50;;;22.30;99.60;;;;;;4983345;28;20177;-84
2022/06/14 11:30:40;;;;;;;3.22;1.38;;;21.20;99.70;;;;;;5033544;28;20033;-93
2022/06/14 11:33:43;;;;;;;3.42;1.35;;;21.70;99.90;;;;;;5001440;28;20044;-91
2022/06/14 11:36:35;;;;;;;2.40;1.30;;;21.90;99.90;;;;;;5004236;28;20072;-89
2022/06/14 11:39:06;;;;;;;4.55;1.48;;;22.00;99.90;;;;;;4995509;28;20077;-89
2022/06/14 11:41:42;;;;;;;2.95;1.33;;;22.20;99.90;;;;;;4997717;28;20060;-90
2022/06/14 11:44:31;;;;;;;2.47;1.30;;;22.10;99.90;;;;;;4967890;28;20049;-91
2022/06/14 11:47:38;;;;;;;4.63;1.35;;;21.60;99.90;;;;;;5013791;28;20054;-92
2022/06/14 11:50:16;;;;;;;4.43;1.40;;;21.70;99.90;;;;;;4971511;28;20498;-89
2022/06/14 11:53:09;;;;;;;4.93;1.35;;;21.00;99.90;;;;;;4995222;28;20042;-89
2022/06/14 11:55:56;;;;;;;3.08;1.58;;;21.20;99.90;;;;;;5011091;28;20042;-85
2022/06/14 11:58:27;;;;;;;2.80;1.25;;;21.40;99.90;;;;;;4996690;28;20049;-86
2022/06/14 12:01:14;;;;;;;4.93;1.50;;;21.00;99.90;;;;;;4986931;28;20054;-84
2022/06/14 12:03:48;;;;;;;3.63;1.33;;;21.20;99.90;;;;;;5021504;28;20042;-87
2022/06/14 12:06:36;;;;;;;3.75;1.40;;;21.40;99.90;;;;;;5026181;28;20489;-85
2022/06/14 12:09:18;;;;;;;3.10;1.38;;;21.00;99.90;;;;;;4982768;28;20069;-86
2022/06/14 12:12:22;;;;;;;3.50;1.30;;;21.40;99.90;;;;;;5011883;28;20038;-85
2022/06/14 12:15:01;;;;;;;4.65;1.55;;;21.30;99.90;;;;;;5015896;28;20034;-88
2022/06/14 12:17:31;;;;;;;4.25;1.42;;;21.30;99.90;;;;;;4983927;28;20100;-87
2022/06/14 12:20:03;;;;;;;2.92;1.40;;;21.60;99.90;;;;;;4967954;28;20046;-90
2022/06/14 12:23:02;;;;;;;4.40;1.60;;;21.70;99.90;;;;;;4999879;28;20056;-87
2022/06/14 12:28:45;;;;;;;5.07;1.60;;;21.20;99.90;;;;;;5005847;28;20041;-87
2022/06/14 12:34:52;;;;;;;3.13;1.30;;;21.50;99.90;;;;;;4973836;28;20044;-88
2022/06/14 12:37:30;;;;;;;2.87;1.60;;;21.50;99.90;;;;;;4982924;28;20060;-87
2022/06/14 12:40:12;;;;;;;2.72;1.30;;;21.50;99.90;;;;;;5015895;28;20054;-87
2022/06/14 12:43:16;;;;;;;3.90;1.35;;;21.30;99.90;;;;;;4983713;28;20049;-87
2022/06/14 12:45:44;;;;;;;3.78;1.00;;;21.40;99.90;;;;;;4995920;28;20073;-89
2022/06/14 12:48:22;;;;;;;4.28;1.80;;;21.00;99.90;;;;;;4972269;28;20061;-89
2022/06/14 12:50:59;;;;;;;2.83;1.42;;;21.20;99.90;;;;;;5015110;28;20478;-85
2022/06/14 12:53:43;;;;;;;3.90;1.40;;;21.30;99.90;;;;;;5032250;28;20041;-91
2022/06/14 12:56:32;;;;;;;;;;;21.30;99.90;;;;;;4995748;28;20061;-86
2022/06/14 12:59:18;;;;;;;3.28;1.10;;;21.00;99.90;;;;;;4983190;28;19922;-85
2022/06/14 13:02:08;;;;;;;2.75;1.30;;;21.20;99.90;;;;;;4996816;28;20057;-85
2022/06/14 13:04:36;;;;;;;4.05;1.33;;;21.30;99.90;;;;;;4997451;28;20394;-85
2022/06/14 13:07:05;;;;;;;2.83;1.23;;;21.40;99.90;;;;;;4973176;28;20107;-85
2022/06/14 13:10:08;;;;;;;3.88;1.58;;;21.40;99.90;;;;;;4996151;28;20180;-85
2022/06/14 13:13:03;;;;;;;3.70;1.30;;;21.10;99.90;;;;;;4995312;28;20436;-84
2022/06/14 13:15:38;;;;;;;5.38;1.38;;;21.00;99.90;;;;;;4984247;28;20046;-82
2022/06/14 13:18:23;;;;;;;3.53;1.63;;;21.00;99.90;;;;;;4985072;28;20095;-81
2022/06/14 13:21:13;;;;;;;2.38;1.15;;;20.70;99.90;;;;;;4984924;28;20057;-83
2022/06/14 13:24:04;;;;;;;3.78;1.40;;;21.00;99.90;;;;;;5013477;28;20042;-86
2022/06/14 13:26:51;;;;;;;3.20;1.20;;;21.00;99.90;;;;;;4991497;28;20049;-83
2022/06/14 13:29:34;;;;;;;3.42;1.30;;;21.00;99.90;;;;;;5013457;28;20398;-84
2022/06/14 13:32:29;;;;;;;3.20;1.15;;;21.10;99.90;;;;;;4979785;28;20111;-84
2022/06/14 13:35:33;;;;;;;5.90;1.90;;;21.10;99.90;;;;;;4982287;28;20048;-84
2022/06/14 13:38:19;;;;;;;5.75;1.38;;;21.10;99.90;;;;;;4995206;28;20203;-84
2022/06/14 13:41:08;;;;;;;1.67;1.20;;;21.00;99.90;;;;;;4980135;28;20054;-88
2022/06/14 13:43:53;;;;;;;1.98;1.20;;;21.00;99.90;;;;;;4995040;28;20046;-85
2022/06/14 13:46:31;;;;;;;2.60;1.65;;;21.30;99.90;;;;;;4979885;28;20077;-85
2022/06/14 13:49:25;;;;;;;3.65;1.13;;;21.30;99.90;;;;;;4981741;28;20136;-84
2022/06/14 13:52:14;;;;;;;4.25;1.40;;;21.20;99.90;;;;;;4994911;28;20050;-84
2022/06/14 13:55:19;;;;;;;2.08;1.10;;;21.10;99.90;;;;;;4978276;28;20053;-84
2022/06/14 13:58:03;;;;;;;2.85;1.15;;;21.40;99.90;;;;;;4975281;28;20085;-85
2022/06/14 14:00:34;;;;;;;5.07;1.23;;;21.70;99.90;;;;;;4996925;28;20054;-87
2022/06/14 14:03:24;;;;;;;2.25;1.10;;;21.50;99.90;;;;;;5012540;28;20205;-86
2022/06/14 14:06:19;;;;;;;2.35;1.25;;;21.60;99.90;;;;;;4980841;28;20046;-86
2022/06/14 14:09:12;;;;;;;3.50;1.27;;;21.20;99.90;;;;;;5007445;28;20046;-87
2022/06/14 14:12:01;;;;;;;2.88;1.35;;;21.10;99.90;;;;;;5014555;28;20056;-89
2022/06/14 14:14:39;;;;;;;3.08;1.40;;;21.40;99.90;;;;;;5002209;28;20050;-88
2022/06/14 14:17:05;;;;;;;1.55;1.10;;;21.70;99.90;;;;;;5014741;28;20073;-85
2022/06/14 14:20:02;;;;;;;1.98;1.10;;;21.30;99.90;;;;;;4995057;28;20091;-85
2022/06/14 14:22:35;;;;;;;3.08;1.02;;;21.60;99.90;;;;;;4966960;28;20045;-88